createdAt,value
2018-04-19T00:02:08.030Z,16.53
2018-04-19T00:04:35.626Z,16.60
2018-04-19T00:07:03.217Z,16.97
2018-04-19T00:09:30.743Z,16.43
2018-04-19T00:11:58.320Z,17.20
2018-04-19T00:14:25.843Z,17.37
2018-04-19T00:16:53.369Z,17.10
2018-04-19T00:19:20.925Z,15.90
2018-04-19T00:21:48.524Z,17.60
2018-04-19T00:24:16.065Z,17.13
2018-04-19T00:26:43.589Z,17.23
2018-04-19T00:29:11.112Z,16.77
2018-04-19T00:31:38.631Z,18.23
2018-04-19T00:34:06.232Z,17.57
2018-04-19T00:36:33.756Z,17.40
2018-04-19T00:39:01.357Z,17.27
2018-04-19T00:41:28.891Z,17.77
2018-04-19T00:43:56.418Z,16.93
2018-04-19T00:46:23.952Z,17.43
2018-04-19T00:48:51.588Z,17.87
2018-04-19T00:51:19.124Z,18.20
2018-04-19T00:53:46.652Z,17.13
2018-04-19T00:56:14.176Z,17.23
2018-04-19T00:58:41.717Z,17.50
2018-04-19T01:01:09.293Z,17.20
2018-04-19T01:03:36.819Z,17.47
2018-04-19T01:06:04.342Z,18.40
2018-04-19T01:08:31.873Z,17.47
2018-04-19T01:10:59.396Z,17.50
2018-04-19T01:13:26.916Z,17.97
2018-04-19T01:15:54.445Z,19.33
2018-04-19T01:18:21.989Z,18.17
2018-04-19T01:20:49.524Z,19.60
2018-04-19T01:23:17.056Z,20.17
2018-04-19T01:25:44.582Z,20.20
2018-04-19T01:28:12.103Z,19.80
2018-04-19T01:30:39.705Z,19.80
2018-04-19T01:33:07.239Z,19.47
2018-04-19T01:35:46.604Z,18.90
2018-04-19T01:38:14.145Z,19.77
2018-04-19T01:40:41.699Z,18.83
2018-04-19T01:43:09.225Z,18.97
2018-04-19T01:45:36.770Z,18.47
2018-04-19T01:48:04.299Z,18.97
2018-04-19T01:50:31.859Z,18.90
2018-04-19T01:52:59.392Z,20.30
2018-04-19T01:55:26.917Z,20.47
2018-04-19T01:57:54.465Z,19.93
2018-04-19T02:00:21.983Z,19.40
2018-04-19T02:02:49.509Z,20.17
2018-04-19T02:05:17.047Z,20.33
2018-04-19T02:07:44.676Z,19.93
2018-04-19T02:10:12.212Z,20.87
2018-04-19T02:12:39.753Z,19.90
2018-04-19T02:15:07.359Z,21.20
2018-04-19T02:17:34.889Z,20.17
2018-04-19T02:20:02.432Z,20.07
2018-04-19T02:22:29.968Z,19.63
2018-04-19T02:24:57.493Z,20.37
2018-04-19T02:27:25.023Z,20.53
2018-04-19T02:29:52.543Z,20.63
2018-04-19T02:32:20.080Z,20.13
2018-04-19T02:34:47.619Z,19.97
2018-04-19T02:37:15.156Z,19.93
2018-04-19T02:39:42.683Z,21.43
2018-04-19T02:42:10.212Z,20.63
2018-04-19T02:44:37.740Z,20.50
2018-04-19T02:47:05.280Z,19.37
2018-04-19T02:49:32.820Z,21.07
2018-04-19T02:52:00.955Z,20.47
2018-04-19T02:54:28.519Z,20.27
2018-04-19T02:56:56.053Z,21.07
2018-04-19T02:59:23.593Z,20.63
2018-04-19T03:01:51.132Z,21.03
2018-04-19T03:04:18.672Z,21.03
2018-04-19T03:06:46.214Z,20.13
2018-04-19T03:09:13.751Z,21.60
2018-04-19T03:11:41.294Z,20.53
2018-04-19T03:14:08.826Z,21.13
2018-04-19T03:16:36.456Z,22.23
2018-04-19T03:19:04.859Z,20.70
2018-04-19T03:21:32.393Z,21.07
2018-04-19T03:23:59.925Z,21.23
2018-04-19T03:26:27.515Z,21.57
2018-04-19T03:28:55.090Z,21.63
2018-04-19T03:31:22.601Z,20.73
2018-04-19T03:33:50.168Z,21.17
2018-04-19T03:36:17.755Z,21.00
2018-04-19T03:38:45.291Z,20.80
2018-04-19T03:41:12.815Z,22.77
2018-04-19T03:43:40.435Z,21.10
2018-04-19T03:46:07.963Z,20.03
2018-04-19T03:48:35.560Z,21.50
2018-04-19T03:51:03.115Z,20.73
2018-04-19T03:53:30.640Z,21.27
2018-04-19T03:55:58.164Z,21.53
2018-04-19T03:58:25.778Z,22.93
2018-04-19T04:00:53.306Z,21.00
2018-04-19T04:03:20.837Z,22.47
2018-04-19T04:05:48.359Z,21.77
2018-04-19T04:08:15.980Z,22.93
2018-04-19T04:10:43.491Z,23.37
2018-04-19T04:13:11.016Z,22.20
2018-04-19T04:15:38.612Z,21.87
2018-04-19T04:18:17.846Z,23.07
2018-04-19T04:20:57.340Z,23.00
2018-04-19T04:23:40.724Z,22.67
2018-04-19T04:26:08.258Z,22.40
2018-04-19T04:28:35.782Z,22.57
2018-04-19T04:31:03.341Z,23.60
2018-04-19T04:33:30.889Z,22.03
2018-04-19T04:35:58.421Z,25.33
2018-04-19T04:38:25.939Z,24.63
2018-04-19T04:40:53.468Z,23.60
2018-04-19T04:43:21.096Z,21.87
2018-04-19T04:45:48.621Z,22.53
2018-04-19T04:48:16.157Z,22.50
2018-04-19T04:50:43.685Z,21.87
2018-04-19T04:53:11.218Z,23.77
2018-04-19T04:55:38.756Z,23.70
2018-04-19T04:58:06.281Z,22.17
2018-04-19T05:00:33.795Z,24.70
2018-04-19T05:03:01.332Z,21.47
2018-04-19T05:05:28.857Z,22.33
2018-04-19T05:07:56.389Z,22.93
2018-04-19T05:10:23.912Z,23.57
2018-04-19T05:12:51.449Z,22.83
2018-04-19T05:15:19.034Z,24.07
2018-04-19T05:17:46.572Z,23.00
2018-04-19T05:20:14.290Z,22.70
2018-04-19T05:22:41.935Z,24.50
2018-04-19T05:25:09.476Z,25.90
2018-04-19T05:27:37.004Z,26.93
2018-04-19T05:30:04.572Z,28.70
2018-04-19T05:32:32.117Z,52.80
2018-04-19T05:34:59.647Z,95.00
2018-04-19T05:37:27.179Z,61.77
2018-04-19T05:39:54.781Z,45.53
2018-04-19T05:42:22.329Z,35.27
2018-04-19T07:00:51.842Z,12.63
2018-04-19T07:03:19.400Z,13.33
2018-04-19T07:05:46.940Z,12.40
2018-04-19T07:08:14.459Z,12.50
2018-04-19T07:10:41.993Z,10.93
2018-04-19T07:13:09.537Z,10.73
2018-04-19T07:15:37.109Z,10.60
2018-04-19T07:18:04.642Z,10.43
2018-04-19T07:20:32.235Z,9.63
2018-04-19T07:22:59.753Z,9.53
2018-04-19T07:25:27.287Z,10.97
2018-04-19T07:27:54.834Z,9.70
2018-04-19T07:30:22.378Z,10.67
2018-04-19T07:32:49.917Z,10.23
2018-04-19T07:35:17.468Z,9.57
2018-04-19T07:37:45.047Z,8.87
2018-04-19T07:40:12.612Z,9.10
2018-04-19T07:42:40.171Z,10.40
2018-04-19T07:45:07.696Z,9.73
2018-04-19T07:47:35.224Z,9.87
2018-04-19T07:50:02.746Z,9.20
2018-04-19T07:52:30.310Z,9.38
2018-04-19T07:54:58.542Z,8.45
2018-04-19T07:57:26.078Z,8.25
2018-04-19T07:59:53.632Z,7.70
2018-04-19T08:02:21.261Z,7.18
2018-04-19T08:04:48.915Z,7.62
2018-04-19T08:07:16.494Z,7.32
2018-04-19T08:09:44.049Z,6.70
2018-04-19T08:12:11.588Z,5.32
2018-04-19T08:14:39.108Z,5.37
2018-04-19T08:17:06.658Z,5.35
2018-04-19T08:19:34.289Z,5.60
2018-04-19T08:22:01.851Z,4.72
2018-04-19T08:24:29.432Z,4.97
2018-04-19T08:26:57.059Z,4.82
2018-04-19T08:29:24.579Z,5.50
2018-04-19T08:31:52.125Z,6.45
2018-04-19T08:34:19.636Z,4.93
2018-04-19T08:36:47.168Z,5.62
2018-04-19T08:39:14.708Z,5.50
2018-04-19T08:41:42.253Z,6.00
2018-04-19T08:44:09.890Z,5.57
2018-04-19T08:46:37.415Z,6.43
2018-04-19T08:49:04.937Z,5.97
2018-04-19T08:51:32.467Z,6.05
2018-04-19T08:53:59.997Z,6.70
2018-04-19T08:56:27.568Z,6.65
2018-04-19T08:58:55.100Z,7.10
2018-04-19T09:01:22.631Z,6.57
2018-04-19T09:03:50.268Z,6.95
2018-04-19T09:06:17.784Z,8.27
2018-04-19T09:08:45.387Z,7.22
2018-04-19T09:11:12.948Z,7.35
2018-04-19T09:13:40.503Z,8.32
2018-04-19T09:16:08.022Z,7.35
2018-04-19T09:18:35.623Z,8.75
2018-04-19T09:21:03.184Z,6.97
2018-04-19T09:23:30.704Z,7.05
2018-04-19T09:25:58.307Z,7.20
2018-04-19T09:28:25.878Z,6.95
2018-04-19T09:30:53.399Z,7.00
2018-04-19T09:33:20.940Z,7.62
2018-04-19T09:35:48.481Z,6.57
2018-04-19T09:38:16.004Z,7.50
2018-04-19T09:40:43.519Z,7.68
2018-04-19T09:43:11.050Z,6.05
2018-04-19T09:45:38.582Z,6.82
2018-04-19T09:48:06.123Z,6.37
2018-04-19T09:50:33.654Z,6.62
2018-04-19T09:53:01.187Z,6.47
2018-04-19T09:55:28.719Z,5.87
2018-04-19T09:58:08.091Z,5.75
2018-04-19T10:00:41.307Z,6.30
2018-04-19T10:03:08.835Z,5.70
2018-04-19T10:08:35.055Z,6.20
2018-04-19T10:11:02.581Z,5.43
2018-04-19T10:13:30.099Z,5.35
2018-04-19T10:15:57.650Z,5.47
2018-04-19T10:18:25.193Z,5.45
2018-04-19T10:20:52.731Z,5.53
2018-04-19T10:23:20.248Z,6.05
2018-04-19T10:25:47.771Z,5.30
2018-04-19T10:28:15.296Z,5.80
2018-04-19T10:30:42.820Z,4.87
2018-04-19T10:33:10.344Z,6.00
2018-04-19T10:35:37.884Z,6.07
2018-04-19T10:38:05.470Z,5.93
2018-04-19T10:40:33.000Z,5.60
2018-04-19T10:43:00.525Z,5.60
2018-04-19T10:45:28.092Z,6.05
2018-04-19T10:47:55.655Z,6.32
2018-04-19T10:50:23.218Z,6.60
2018-04-19T10:52:50.768Z,6.25
2018-04-19T10:55:18.375Z,6.95
2018-04-19T10:57:45.948Z,8.00
2018-04-19T11:00:13.475Z,8.02
2018-04-19T11:02:41.055Z,8.65
2018-04-19T11:05:08.593Z,11.15
2018-04-19T11:07:36.128Z,14.57
2018-04-19T11:10:03.674Z,10.83
2018-04-19T11:12:31.191Z,8.43
2018-04-19T11:14:58.764Z,7.83
2018-04-19T11:17:26.289Z,8.47
2018-04-19T11:19:53.820Z,15.70
2018-04-19T11:22:21.344Z,8.00
2018-04-19T11:24:48.878Z,7.47
2018-04-19T11:27:16.396Z,9.07
2018-04-19T11:29:43.920Z,9.30
2018-04-19T11:32:11.447Z,13.43
2018-04-19T11:34:38.976Z,7.60
2018-04-19T11:37:06.598Z,6.83
2018-04-19T11:39:34.156Z,7.17
2018-04-19T11:42:01.718Z,8.67
2018-04-19T11:44:29.255Z,7.00
2018-04-19T11:46:56.772Z,7.30
2018-04-19T11:49:24.400Z,7.60
2018-04-19T11:51:51.925Z,7.27
2018-04-19T11:54:19.480Z,7.47
2018-04-19T11:56:47.046Z,7.13
2018-04-19T11:59:14.571Z,7.50
2018-04-19T12:01:42.126Z,7.53
2018-04-19T12:04:09.656Z,7.20
2018-04-19T12:06:37.172Z,7.87
2018-04-19T12:09:05.592Z,7.30
2018-04-19T12:11:33.157Z,6.27
2018-04-19T12:14:00.720Z,6.33
2018-04-19T12:16:28.262Z,6.23
2018-04-19T12:18:55.788Z,6.57
2018-04-19T12:21:23.329Z,6.43
2018-04-19T12:23:50.854Z,7.00
2018-04-19T12:26:18.390Z,7.13
2018-04-19T12:28:45.924Z,7.43
2018-04-19T12:31:13.500Z,7.80
2018-04-19T12:33:41.025Z,7.70
2018-04-19T12:36:08.555Z,6.50
2018-04-19T12:38:36.100Z,7.00
2018-04-19T12:41:03.684Z,7.93
2018-04-19T12:43:31.228Z,7.23
2018-04-19T12:45:58.762Z,7.47
2018-04-19T12:48:26.288Z,7.43
2018-04-19T12:50:53.805Z,6.57
2018-04-19T12:53:21.341Z,6.23
2018-04-19T12:55:48.924Z,7.50
2018-04-19T12:58:16.443Z,6.70
2018-04-19T13:00:44.050Z,6.40
2018-04-19T13:03:11.582Z,5.97
2018-04-19T13:05:39.100Z,6.10
2018-04-19T13:08:06.711Z,5.67
2018-04-19T13:10:34.287Z,5.57
2018-04-19T13:13:01.821Z,6.50
2018-04-19T13:15:29.342Z,5.50
2018-04-19T13:17:56.971Z,5.73
2018-04-19T13:20:24.496Z,5.77
2018-04-19T13:22:52.020Z,4.97
2018-04-19T13:25:19.549Z,4.50
2018-04-19T13:27:47.072Z,5.43
2018-04-19T13:30:14.599Z,4.93
2018-04-19T13:32:42.123Z,4.40
2018-04-19T13:35:09.682Z,5.30
2018-04-19T13:37:37.208Z,4.67
2018-04-19T13:40:04.730Z,5.07
2018-04-19T13:42:32.261Z,5.20
2018-04-19T13:44:59.833Z,5.00
2018-04-19T13:47:27.362Z,4.73
2018-04-19T13:49:54.891Z,4.83
2018-04-19T13:52:22.415Z,4.27
2018-04-19T13:54:49.957Z,4.30
2018-04-19T13:57:17.484Z,3.83
2018-04-19T13:59:45.074Z,5.20
2018-04-19T14:02:12.606Z,3.37
2018-04-19T14:04:40.208Z,3.80
2018-04-19T14:07:07.724Z,4.50
2018-04-19T14:09:35.259Z,4.23
2018-04-19T14:12:02.887Z,3.77
2018-04-19T14:14:30.413Z,3.40
2018-04-19T14:16:57.940Z,4.73
2018-04-19T14:19:25.485Z,4.20
2018-04-19T14:21:53.035Z,3.43
2018-04-19T14:24:20.556Z,4.27
2018-04-19T14:26:49.032Z,4.33
2018-04-19T14:29:16.547Z,3.50
2018-04-19T14:31:44.182Z,3.60
2018-04-19T14:34:11.721Z,3.10
2018-04-19T14:36:39.259Z,3.53
2018-04-19T14:39:06.795Z,3.57
2018-04-19T14:41:34.320Z,3.83
2018-04-19T14:44:01.861Z,3.37
2018-04-19T14:46:29.429Z,3.20
2018-04-19T14:48:56.960Z,2.67
2018-04-19T14:51:24.481Z,3.60
2018-04-19T14:53:52.020Z,3.10
2018-04-19T14:56:19.548Z,3.30
2018-04-19T14:58:47.135Z,3.53
2018-04-19T15:01:14.667Z,3.47
2018-04-19T15:03:42.179Z,2.80
2018-04-19T15:06:09.712Z,3.43
2018-04-19T15:08:37.245Z,2.73
2018-04-19T15:11:04.760Z,3.23
2018-04-19T15:13:32.290Z,2.87
2018-04-19T15:15:59.821Z,3.27
2018-04-19T15:18:27.340Z,2.80
2018-04-19T15:20:54.972Z,2.97
2018-04-19T15:23:22.500Z,2.60
2018-04-19T15:25:50.032Z,2.93
2018-04-19T15:28:17.580Z,2.70
2018-04-19T15:30:45.105Z,2.90
2018-04-19T15:33:12.637Z,3.30
2018-04-19T15:35:40.225Z,2.90
2018-04-19T15:38:07.782Z,3.10
2018-04-19T15:40:35.302Z,2.87
2018-04-19T15:43:02.916Z,2.63
2018-04-19T15:45:30.585Z,3.30
2018-04-19T15:47:58.104Z,3.17
2018-04-19T15:50:25.617Z,2.63
2018-04-19T15:52:53.143Z,2.90
2018-04-19T15:55:20.680Z,3.13
2018-04-19T15:57:48.191Z,2.80
2018-04-19T16:00:15.725Z,2.80
2018-04-19T16:02:43.282Z,3.50
2018-04-19T16:05:10.943Z,3.57
2018-04-19T16:07:38.504Z,3.27
2018-04-19T16:10:06.034Z,3.27
2018-04-19T16:12:33.547Z,3.77
2018-04-19T16:15:01.101Z,3.10
2018-04-19T16:17:28.716Z,3.67
2018-04-19T16:19:56.241Z,3.20
2018-04-19T16:22:23.759Z,3.30
2018-04-19T16:24:51.302Z,4.03
2018-04-19T16:27:18.851Z,3.77
2018-04-19T16:29:46.365Z,3.57
2018-04-19T16:32:13.897Z,3.70
2018-04-19T16:34:41.421Z,3.67
2018-04-19T16:37:08.953Z,3.23
2018-04-19T16:39:36.530Z,3.80
2018-04-19T16:42:04.075Z,3.20
2018-04-19T16:44:31.592Z,3.50
2018-04-19T16:46:59.151Z,4.30
2018-04-19T16:49:26.683Z,3.77
2018-04-19T16:51:54.195Z,3.73
2018-04-19T16:54:21.712Z,3.20
2018-04-19T16:56:49.287Z,3.30
2018-04-19T16:59:16.820Z,3.37
2018-04-19T17:01:44.338Z,3.00
2018-04-19T17:04:11.856Z,3.40
2018-04-19T17:06:39.381Z,2.97
2018-04-19T17:09:07.193Z,3.50
2018-04-19T17:11:34.754Z,3.63
2018-04-19T17:14:02.418Z,3.77
2018-04-19T17:16:30.227Z,3.67
2018-04-19T17:18:57.826Z,3.77
2018-04-19T17:21:25.351Z,3.30
2018-04-19T17:23:52.890Z,3.53
2018-04-19T17:26:20.516Z,3.93
2018-04-19T17:28:48.052Z,3.63
2018-04-19T17:31:15.569Z,3.77
2018-04-19T17:33:43.183Z,3.57
2018-04-19T17:36:10.869Z,3.60
2018-04-19T17:38:38.631Z,3.53
2018-04-19T17:41:06.160Z,3.63
2018-04-19T17:43:33.674Z,3.90
2018-04-19T17:46:01.311Z,3.73
2018-04-19T17:48:28.833Z,4.00
2018-04-19T17:50:56.380Z,3.77
2018-04-19T17:53:23.895Z,3.90
2018-04-19T17:55:51.415Z,3.80
2018-04-19T17:58:18.987Z,3.50
2018-04-19T18:00:46.559Z,3.57
2018-04-19T18:03:14.071Z,4.10
2018-04-19T18:05:41.683Z,4.17
2018-04-19T18:08:09.215Z,3.67
2018-04-19T18:10:36.800Z,3.60
2018-04-19T18:13:04.329Z,3.83
2018-04-19T18:15:31.889Z,3.73
2018-04-19T18:17:59.449Z,4.10
2018-04-19T18:20:27.013Z,4.10
2018-04-19T18:22:54.548Z,4.00
2018-04-19T18:25:22.095Z,4.83
2018-04-19T18:27:49.628Z,4.10
2018-04-19T18:30:17.186Z,4.33
2018-04-19T18:32:44.737Z,3.93
2018-04-19T18:35:12.298Z,3.90
2018-04-19T18:37:39.826Z,4.00
2018-04-19T18:40:07.423Z,4.10
2018-04-19T18:42:34.976Z,4.50
2018-04-19T18:45:02.510Z,4.33
2018-04-19T18:47:30.046Z,3.90
2018-04-19T18:49:57.606Z,3.90
2018-04-19T18:52:25.144Z,4.13
2018-04-19T18:54:52.685Z,3.70
2018-04-19T18:57:20.204Z,3.67
2018-04-19T18:59:47.736Z,4.00
2018-04-19T19:02:15.369Z,3.67
2018-04-19T19:04:43.020Z,3.40
2018-04-19T19:07:10.551Z,3.53
2018-04-19T19:09:38.141Z,3.97
2018-04-19T19:12:05.696Z,4.53
2018-04-19T19:14:34.149Z,4.07
2018-04-19T19:20:12.923Z,3.60
2018-04-19T19:22:40.456Z,3.43
2018-04-19T19:25:08.052Z,3.83
2018-04-19T19:27:35.573Z,3.30
2018-04-19T19:30:03.093Z,3.63
2018-04-19T19:32:30.721Z,3.50
2018-04-19T19:34:58.257Z,3.77
2018-04-19T19:37:25.772Z,4.47
2018-04-19T19:39:53.303Z,3.80
2018-04-19T19:42:20.832Z,4.03
2018-04-19T19:44:48.350Z,3.70
2018-04-19T19:47:15.882Z,3.63
2018-04-19T19:49:43.407Z,3.80
2018-04-19T19:52:10.923Z,3.73
2018-04-19T19:54:38.456Z,3.30
2018-04-19T19:57:05.984Z,3.90
2018-04-19T19:59:33.539Z,4.00
2018-04-19T20:02:01.081Z,4.03
2018-04-19T20:04:28.695Z,3.60
2018-04-19T20:06:56.226Z,3.83
2018-04-19T20:09:23.743Z,4.03
2018-04-19T20:11:51.381Z,4.10
2018-04-19T20:14:18.904Z,4.13
2018-04-19T20:16:46.420Z,4.13
2018-04-19T20:19:14.061Z,3.60
2018-04-19T20:21:41.596Z,4.10
2018-04-19T20:24:09.164Z,4.43
2018-04-19T20:26:36.692Z,3.50
2018-04-19T20:29:04.225Z,4.37
2018-04-19T20:31:31.865Z,3.93
2018-04-19T20:33:59.404Z,4.13
2018-04-19T20:36:26.974Z,4.27
2018-04-19T20:38:54.497Z,3.57
2018-04-19T20:41:22.024Z,3.93
2018-04-19T20:43:49.541Z,3.50
2018-04-19T20:46:17.118Z,3.47
2018-04-19T20:48:44.660Z,3.47
2018-04-19T20:51:12.468Z,3.97
2018-04-19T20:53:40.310Z,3.83
2018-04-19T20:56:08.083Z,3.90
2018-04-19T20:58:35.807Z,3.80
2018-04-19T21:01:03.606Z,4.17
2018-04-19T21:03:31.264Z,4.20
2018-04-19T21:05:58.826Z,3.67
2018-04-19T21:08:26.389Z,4.10
2018-04-19T21:10:53.945Z,4.50
2018-04-19T21:13:21.488Z,4.20
2018-04-19T21:15:49.017Z,4.30
2018-04-19T21:18:16.548Z,4.57
2018-04-19T21:20:44.076Z,5.27
2018-04-19T21:23:11.604Z,4.50
2018-04-19T21:25:39.123Z,4.80
2018-04-19T21:28:06.639Z,4.80
2018-04-19T21:30:34.172Z,5.17
2018-04-19T21:33:01.711Z,4.93
2018-04-19T21:35:29.241Z,4.37
2018-04-19T21:37:56.783Z,4.10
2018-04-19T21:40:24.317Z,4.50
2018-04-19T21:42:51.848Z,5.00
2018-04-19T21:45:19.374Z,4.07
2018-04-19T21:47:46.934Z,4.43
2018-04-19T21:50:14.456Z,4.53
2018-04-19T21:52:41.975Z,4.47
2018-04-19T21:55:09.612Z,4.53
2018-04-19T21:57:37.129Z,4.87
2018-04-19T22:00:04.659Z,4.97
2018-04-19T22:02:32.187Z,4.80
2018-04-19T22:04:59.720Z,4.97
2018-04-19T22:07:27.603Z,5.13
2018-04-19T22:09:55.179Z,5.00
2018-04-19T22:12:22.693Z,4.73
2018-04-19T22:14:50.297Z,5.07
2018-04-19T22:17:17.824Z,4.83
2018-04-19T22:19:45.386Z,4.80
2018-04-19T22:22:12.908Z,5.57
2018-04-19T22:24:40.436Z,5.50
2018-04-19T22:27:07.962Z,5.97
2018-04-19T22:29:35.486Z,5.50
2018-04-19T22:32:02.995Z,5.87
2018-04-19T22:34:30.552Z,5.43
2018-04-19T22:36:58.133Z,5.63
2018-04-19T22:39:25.650Z,5.53
2018-04-19T22:41:53.244Z,5.50
2018-04-19T22:44:20.770Z,6.03
2018-04-19T22:46:48.374Z,5.97
2018-04-19T22:49:15.887Z,6.00
2018-04-19T22:51:43.418Z,6.20
2018-04-19T22:54:10.951Z,6.43
2018-04-19T22:56:38.496Z,5.80
2018-04-19T22:59:06.020Z,6.17
2018-04-19T23:01:33.553Z,5.77
2018-04-19T23:04:01.092Z,7.23
2018-04-19T23:06:28.652Z,6.50
2018-04-19T23:08:56.208Z,6.60
2018-04-19T23:11:23.732Z,7.10
2018-04-19T23:13:51.326Z,6.53
2018-04-19T23:16:18.851Z,6.43
2018-04-19T23:18:46.404Z,6.17
2018-04-19T23:21:13.944Z,7.03
2018-04-19T23:23:41.466Z,6.70
2018-04-19T23:26:08.980Z,6.90
2018-04-19T23:28:36.505Z,7.23
2018-04-19T23:31:04.044Z,7.70
2018-04-19T23:33:31.575Z,7.23
2018-04-19T23:35:59.096Z,7.63
2018-04-19T23:38:26.619Z,7.50
2018-04-19T23:40:54.140Z,7.23
2018-04-19T23:43:21.674Z,7.53
2018-04-19T23:45:49.198Z,7.23
2018-04-19T23:48:16.756Z,7.43
2018-04-19T23:50:44.288Z,7.87
2018-04-19T23:53:11.805Z,7.63
2018-04-19T23:55:39.334Z,7.93
2018-04-19T23:58:06.850Z,7.27
